createdAt,value
2022-08-24T00:00:47.644Z,100.00
2022-08-24T00:03:17.454Z,100.00
2022-08-24T00:05:47.581Z,100.00
2022-08-24T00:08:17.924Z,100.00
2022-08-24T00:10:50.324Z,100.00
2022-08-24T00:13:20.349Z,100.00
2022-08-24T00:15:50.391Z,100.00
2022-08-24T00:18:20.161Z,100.00
2022-08-24T00:20:50.052Z,100.00
2022-08-24T00:23:19.868Z,100.00
2022-08-24T00:25:52.265Z,100.00
2022-08-24T00:28:22.102Z,100.00
2022-08-24T00:30:51.945Z,100.00
2022-08-24T00:33:22.455Z,100.00
2022-08-24T00:35:52.208Z,100.00
2022-08-24T00:38:22.096Z,100.00
2022-08-24T00:41:00.111Z,99.99
2022-08-24T00:43:29.861Z,100.00
2022-08-24T00:46:19.313Z,99.88
2022-08-24T00:48:54.469Z,99.85
2022-08-24T00:51:29.357Z,99.98
2022-08-24T00:54:04.199Z,99.78
2022-08-24T00:56:44.959Z,99.93
2022-08-24T00:59:19.423Z,99.88
2022-08-24T01:01:51.048Z,99.68
2022-08-24T01:04:29.207Z,99.71
2022-08-24T01:06:59.679Z,99.87
2022-08-24T01:09:30.996Z,99.89
2022-08-24T01:12:03.949Z,99.64
2022-08-24T01:14:34.123Z,99.78
2022-08-24T01:17:16.315Z,99.77
2022-08-24T01:19:50.309Z,99.68
2022-08-24T01:22:33.664Z,99.66
2022-08-24T01:25:07.264Z,99.83
2022-08-24T01:27:37.742Z,99.89
2022-08-24T01:30:13.538Z,99.79
2022-08-24T01:32:44.082Z,100.00
2022-08-24T01:35:13.817Z,100.00
2022-08-24T01:37:43.739Z,100.00
2022-08-24T01:40:16.432Z,99.96
2022-08-24T01:42:51.466Z,100.00
2022-08-24T01:45:22.103Z,100.00
2022-08-24T01:47:51.905Z,100.00
2022-08-24T01:50:22.144Z,100.00
2022-08-24T01:53:04.785Z,100.00
2022-08-24T01:55:38.238Z,100.00
2022-08-24T01:58:08.918Z,100.00
2022-08-24T02:00:40.734Z,100.00
2022-08-24T02:03:10.715Z,100.00
2022-08-24T02:05:40.763Z,100.00
2022-08-24T02:08:10.689Z,99.99
2022-08-24T02:10:45.904Z,100.00
2022-08-24T02:13:22.791Z,99.97
2022-08-24T02:15:52.531Z,100.00
2022-08-24T02:18:22.470Z,100.00
2022-08-24T02:20:53.382Z,100.00
2022-08-24T02:23:23.260Z,100.00
2022-08-24T02:25:55.616Z,100.00
2022-08-24T02:28:26.202Z,100.00
2022-08-24T02:30:56.080Z,100.00
2022-08-24T02:33:26.252Z,100.00
2022-08-24T02:35:56.392Z,100.00
2022-08-24T02:38:26.380Z,100.00
2022-08-24T02:40:58.844Z,100.00
2022-08-24T02:43:28.921Z,100.00
2022-08-24T02:46:00.500Z,100.00
2022-08-24T02:48:30.316Z,100.00
2022-08-24T02:51:00.047Z,100.00
2022-08-24T02:53:29.773Z,100.00
2022-08-24T02:56:02.127Z,100.00
2022-08-24T02:58:31.837Z,100.00
2022-08-24T03:01:01.570Z,100.00
2022-08-24T03:03:33.002Z,100.00
2022-08-24T03:06:03.503Z,100.00
2022-08-24T03:08:34.579Z,100.00
2022-08-24T03:11:08.788Z,100.00
2022-08-24T03:13:39.829Z,100.00
2022-08-24T03:16:10.464Z,100.00
2022-08-24T03:18:40.278Z,100.00
2022-08-24T03:21:10.759Z,100.00
2022-08-24T03:23:40.513Z,100.00
2022-08-24T03:26:13.050Z,100.00
2022-08-24T03:28:45.133Z,100.00
2022-08-24T03:31:15.313Z,100.00
2022-08-24T03:33:45.059Z,100.00
2022-08-24T03:36:14.826Z,100.00
2022-08-24T03:38:44.931Z,100.00
2022-08-24T03:41:17.265Z,100.00
2022-08-24T03:43:50.138Z,100.00
2022-08-24T03:46:25.235Z,100.00
2022-08-24T03:48:55.695Z,100.00
2022-08-24T03:51:27.436Z,100.00
2022-08-24T03:53:58.911Z,100.00
2022-08-24T03:56:31.687Z,100.00
2022-08-24T03:59:01.453Z,100.00
2022-08-24T04:01:31.631Z,100.00
2022-08-24T04:04:01.625Z,100.00
2022-08-24T04:06:31.861Z,100.00
2022-08-24T04:09:01.608Z,100.00
2022-08-24T04:11:34.759Z,100.00
2022-08-24T04:14:08.383Z,100.00
2022-08-24T04:16:40.359Z,100.00
2022-08-24T04:19:10.323Z,100.00
2022-08-24T04:21:40.637Z,100.00
2022-08-24T04:24:12.286Z,100.00
2022-08-24T04:26:46.195Z,100.00
2022-08-24T04:29:19.512Z,100.00
2022-08-24T04:31:50.050Z,100.00
2022-08-24T04:34:20.661Z,100.00
2022-08-24T04:36:50.464Z,100.00
2022-08-24T04:39:20.201Z,100.00
2022-08-24T04:41:52.924Z,100.00
2022-08-24T04:44:22.853Z,100.00
2022-08-24T04:46:52.593Z,100.00
2022-08-24T04:49:22.412Z,100.00
2022-08-24T04:51:52.304Z,100.00
2022-08-24T04:54:22.212Z,100.00
2022-08-24T04:56:54.551Z,100.00
2022-08-24T04:59:24.267Z,100.00
2022-08-24T05:01:54.456Z,100.00
2022-08-24T05:04:24.415Z,100.00
2022-08-24T05:06:54.473Z,100.00
2022-08-24T05:09:24.389Z,100.00
2022-08-24T05:11:57.532Z,100.00
2022-08-24T05:14:28.932Z,100.00
2022-08-24T05:16:59.280Z,100.00
2022-08-24T05:19:29.001Z,100.00
2022-08-24T05:21:58.724Z,100.00
2022-08-24T05:24:28.683Z,100.00
2022-08-24T05:27:01.266Z,100.00
2022-08-24T05:29:33.796Z,100.00
2022-08-24T05:32:04.645Z,100.00
2022-08-24T05:34:34.473Z,100.00
2022-08-24T05:37:04.922Z,100.00
2022-08-24T05:39:34.811Z,100.00
2022-08-24T05:42:08.026Z,100.00
2022-08-24T05:44:37.748Z,100.00
2022-08-24T05:47:07.976Z,100.00
2022-08-24T05:49:41.372Z,100.00
2022-08-24T05:52:11.617Z,100.00
2022-08-24T05:54:41.354Z,100.00
2022-08-24T05:57:16.265Z,100.00
2022-08-24T05:59:45.996Z,100.00
2022-08-24T06:02:16.014Z,100.00
2022-08-24T06:04:45.938Z,100.00
2022-08-24T06:07:16.665Z,100.00
2022-08-24T06:09:46.524Z,100.00
2022-08-24T06:12:18.969Z,100.00
2022-08-24T06:14:50.374Z,100.00
2022-08-24T06:17:20.242Z,100.00
2022-08-24T06:19:50.026Z,100.00
2022-08-24T06:22:19.755Z,100.00
2022-08-24T06:25:01.888Z,100.00
2022-08-24T06:27:34.333Z,100.00
2022-08-24T06:30:09.698Z,100.00
2022-08-24T06:32:40.140Z,100.00
2022-08-24T06:35:11.335Z,100.00
2022-08-24T06:37:41.582Z,100.00
2022-08-24T06:40:13.362Z,100.00
2022-08-24T06:42:45.892Z,100.00
2022-08-24T06:45:15.906Z,100.00
2022-08-24T06:47:45.885Z,100.00
2022-08-24T06:50:15.792Z,100.00
2022-08-24T06:52:45.517Z,100.00
2022-08-24T06:55:15.311Z,100.00
2022-08-24T06:57:52.142Z,100.00
2022-08-24T07:00:23.750Z,100.00
2022-08-24T07:02:54.301Z,100.00
2022-08-24T07:05:24.226Z,100.00
2022-08-24T07:07:53.964Z,100.00
2022-08-24T07:10:23.943Z,100.00
2022-08-24T07:13:00.788Z,99.72
2022-08-24T07:15:30.730Z,98.85
2022-08-24T07:18:00.835Z,98.21
2022-08-24T07:20:33.080Z,97.29
2022-08-24T07:23:02.990Z,96.44
2022-08-24T07:25:33.739Z,95.39
2022-08-24T07:28:10.120Z,94.23
2022-08-24T07:30:41.312Z,92.94
2022-08-24T07:33:11.238Z,92.20
2022-08-24T07:35:42.139Z,91.27
2022-08-24T07:38:15.085Z,90.33
2022-08-24T07:41:14.510Z,89.40
2022-08-24T07:43:43.194Z,88.38
2022-08-24T07:46:13.707Z,87.36
2022-08-24T07:48:43.522Z,86.68
2022-08-24T07:51:15.267Z,85.94
2022-08-24T07:53:53.608Z,85.19
2022-08-24T07:56:24.171Z,84.39
2022-08-24T07:58:56.556Z,83.67
2022-08-24T08:01:27.369Z,83.00
2022-08-24T08:03:57.147Z,82.34
2022-08-24T08:06:27.006Z,81.72
2022-08-24T08:08:56.812Z,81.30
2022-08-24T08:11:26.902Z,80.97
2022-08-24T08:13:59.253Z,80.53
2022-08-24T08:16:29.071Z,80.33
2022-08-24T08:19:14.282Z,79.94
2022-08-24T08:21:57.548Z,79.59
2022-08-24T08:24:27.365Z,79.22
2022-08-24T08:26:57.918Z,78.85
2022-08-24T08:29:31.581Z,78.39
2022-08-24T08:32:01.617Z,78.26
2022-08-24T08:34:32.340Z,77.94
2022-08-24T08:37:04.058Z,77.79
2022-08-24T08:39:35.108Z,77.52
2022-08-24T08:42:34.662Z,77.22
2022-08-24T08:45:18.456Z,77.05
2022-08-24T08:48:35.881Z,76.89
2022-08-24T08:51:29.065Z,76.60
2022-08-24T08:54:17.626Z,76.33
2022-08-24T08:57:00.223Z,76.13
2022-08-24T08:59:49.153Z,75.86
2022-08-24T09:02:41.482Z,75.48
2022-08-24T09:05:40.614Z,75.15
2022-08-24T09:08:22.448Z,74.74
2022-08-24T09:10:59.861Z,74.64
2022-08-24T09:13:46.876Z,74.60
2022-08-24T09:16:31.669Z,74.34
2022-08-24T09:19:23.299Z,73.99
2022-08-24T09:22:13.248Z,73.71
2022-08-24T09:25:10.250Z,73.58
2022-08-24T09:27:50.211Z,73.23
2022-08-24T09:30:26.443Z,73.14
2022-08-24T09:33:07.932Z,72.92
2022-08-24T09:36:03.124Z,72.81
2022-08-24T09:38:53.369Z,72.74
2022-08-24T09:42:01.266Z,72.50
2022-08-24T09:45:04.063Z,72.49
2022-08-24T09:48:06.445Z,72.38
2022-08-24T09:51:05.960Z,72.30
2022-08-24T09:54:05.475Z,72.19
2022-08-24T09:57:11.634Z,72.09
2022-08-24T10:00:06.221Z,72.07
2022-08-24T10:03:02.565Z,72.22
2022-08-24T10:05:53.688Z,72.12
2022-08-24T10:08:34.736Z,72.18
2022-08-24T10:11:13.858Z,72.30
2022-08-24T10:13:55.556Z,72.20
2022-08-24T10:16:36.194Z,72.08
2022-08-24T10:19:24.223Z,72.10
2022-08-24T10:22:05.384Z,72.13
2022-08-24T10:24:59.103Z,72.03
2022-08-24T10:27:48.360Z,72.08
2022-08-24T10:30:49.087Z,72.18
2022-08-24T10:33:24.412Z,72.18
2022-08-24T10:36:20.879Z,72.03
2022-08-24T10:39:06.383Z,71.96
2022-08-24T10:42:33.096Z,72.07
2022-08-24T10:45:13.043Z,71.88
2022-08-24T10:48:02.747Z,71.95
2022-08-24T10:50:56.149Z,72.00
2022-08-24T10:53:30.852Z,72.16
2022-08-24T10:56:13.744Z,72.12
2022-08-24T10:59:06.930Z,72.09
2022-08-24T11:01:39.007Z,71.96
2022-08-24T11:04:13.830Z,71.98
2022-08-24T11:06:46.263Z,71.87
2022-08-24T11:09:19.935Z,71.83
2022-08-24T11:11:52.478Z,71.80
2022-08-24T11:14:32.134Z,72.08
2022-08-24T11:17:18.958Z,72.07
2022-08-24T11:19:52.443Z,71.95
2022-08-24T11:22:33.511Z,71.65
2022-08-24T11:25:07.812Z,71.74
2022-08-24T11:27:40.748Z,71.51
2022-08-24T11:30:16.053Z,71.64
2022-08-24T11:32:47.852Z,71.82
2022-08-24T11:35:27.643Z,72.10
2022-08-24T11:37:59.804Z,72.47
2022-08-24T11:40:36.771Z,72.68
2022-08-24T11:43:19.369Z,73.08
2022-08-24T11:46:08.396Z,73.60
2022-08-24T11:48:49.527Z,74.46
2022-08-24T11:51:34.948Z,75.06
2022-08-24T11:54:14.359Z,75.28
2022-08-24T11:56:52.090Z,75.60
2022-08-24T11:59:42.611Z,75.91
2022-08-24T12:02:19.469Z,76.14
2022-08-24T12:04:59.499Z,76.30
2022-08-24T12:07:51.139Z,76.50
2022-08-24T12:10:32.765Z,76.67
2022-08-24T12:13:09.356Z,77.06
2022-08-24T12:15:51.447Z,77.50
2022-08-24T12:18:29.640Z,78.02
2022-08-24T12:21:01.037Z,78.22
2022-08-24T12:23:40.484Z,78.26
2022-08-24T12:26:15.298Z,78.35
2022-08-24T12:28:54.219Z,78.34
2022-08-24T12:31:30.669Z,78.32
2022-08-24T12:34:09.457Z,78.45
2022-08-24T12:36:46.219Z,78.80
2022-08-24T12:39:24.492Z,79.22
2022-08-24T12:42:14.546Z,79.26
2022-08-24T12:44:53.950Z,79.43
2022-08-24T12:47:29.749Z,79.38
2022-08-24T12:50:06.451Z,79.36
2022-08-24T12:53:04.343Z,79.41
2022-08-24T12:56:00.671Z,79.47
2022-08-24T12:58:55.159Z,79.49
2022-08-24T13:01:29.816Z,79.65
2022-08-24T13:04:10.303Z,79.50
2022-08-24T13:06:45.464Z,79.60
2022-08-24T13:09:29.568Z,79.53
2022-08-24T13:12:38.188Z,79.80
2022-08-24T13:15:50.188Z,80.15
2022-08-24T13:18:55.213Z,80.41
2022-08-24T13:21:41.873Z,80.45
2022-08-24T13:24:44.916Z,80.48
2022-08-24T13:27:50.795Z,80.23
2022-08-24T13:30:38.242Z,80.16
2022-08-24T13:33:13.637Z,80.22
2022-08-24T13:36:09.052Z,80.15
2022-08-24T13:38:57.973Z,80.09
2022-08-24T13:41:48.228Z,80.18
2022-08-24T13:44:28.601Z,80.34
2022-08-24T13:47:11.105Z,80.59
2022-08-24T13:50:02.022Z,80.69
2022-08-24T13:52:42.528Z,81.05
2022-08-24T13:55:31.741Z,81.01
2022-08-24T13:58:17.309Z,81.38
2022-08-24T14:00:54.420Z,81.69
2022-08-24T14:04:07.267Z,81.59
2022-08-24T14:06:52.758Z,81.56
2022-08-24T14:09:37.588Z,81.68
2022-08-24T14:12:20.487Z,81.65
2022-08-24T14:15:05.475Z,81.56
2022-08-24T14:17:53.804Z,81.71
2022-08-24T14:21:00.622Z,82.02
2022-08-24T14:23:48.307Z,82.38
2022-08-24T14:26:52.730Z,82.55
2022-08-24T14:29:37.652Z,82.67
2022-08-24T14:32:31.340Z,82.52
2022-08-24T14:35:31.058Z,82.33
2022-08-24T14:38:24.234Z,82.00
2022-08-24T14:41:09.383Z,81.63
2022-08-24T14:44:06.413Z,81.25
2022-08-24T14:46:43.630Z,81.07
2022-08-24T14:49:21.816Z,80.85
2022-08-24T14:52:04.096Z,80.46
2022-08-24T14:54:51.063Z,80.08
2022-08-24T14:57:42.171Z,79.93
2022-08-24T15:00:17.844Z,79.91
2022-08-24T15:03:15.270Z,79.98
2022-08-24T15:06:15.912Z,79.96
2022-08-24T15:08:45.643Z,79.97
2022-08-24T15:11:17.955Z,80.12
2022-08-24T15:13:53.545Z,80.08
2022-08-24T15:16:28.459Z,80.35
2022-08-24T15:19:07.691Z,80.30
2022-08-24T15:21:50.215Z,80.47
2022-08-24T15:24:37.771Z,81.07
2022-08-24T15:27:24.084Z,81.20
2022-08-24T15:30:00.585Z,81.19
2022-08-24T15:32:45.271Z,81.25
2022-08-24T15:35:26.911Z,81.47
2022-08-24T15:37:58.101Z,81.70
2022-08-24T15:40:30.156Z,81.71
2022-08-24T15:43:04.051Z,81.70
2022-08-24T15:45:39.321Z,81.88
2022-08-24T15:48:09.220Z,82.04
2022-08-24T15:50:45.379Z,81.92
2022-08-24T15:53:32.208Z,81.96
2022-08-24T15:56:09.723Z,82.06
2022-08-24T15:58:41.758Z,82.40
2022-08-24T16:01:46.528Z,82.58
2022-08-24T16:04:37.542Z,82.80
2022-08-24T16:07:07.528Z,83.20
2022-08-24T16:09:40.553Z,83.75
2022-08-24T16:12:16.468Z,83.87
2022-08-24T16:14:50.798Z,84.29
2022-08-24T16:17:30.652Z,84.52
2022-08-24T16:20:02.728Z,85.00
2022-08-24T16:22:39.435Z,85.25
2022-08-24T16:25:19.588Z,85.41
2022-08-24T16:28:01.810Z,85.77
2022-08-24T16:30:49.250Z,86.01
2022-08-24T16:33:44.520Z,86.19
2022-08-24T16:36:18.139Z,86.41
2022-08-24T16:38:50.838Z,86.32
2022-08-24T16:41:23.155Z,86.43
2022-08-24T16:43:53.599Z,86.72
2022-08-24T16:46:26.111Z,86.84
2022-08-24T16:48:59.122Z,87.06
2022-08-24T16:51:28.889Z,87.16
2022-08-24T16:53:58.661Z,87.23
2022-08-24T16:56:28.457Z,87.64
2022-08-24T16:58:58.812Z,87.72
2022-08-24T17:01:28.912Z,87.98
2022-08-24T17:04:01.303Z,88.49
2022-08-24T17:06:31.061Z,88.58
2022-08-24T17:09:01.344Z,89.12
2022-08-24T17:11:31.128Z,89.35
2022-08-24T17:14:01.135Z,89.87
2022-08-24T17:16:31.077Z,90.21
2022-08-24T17:19:04.532Z,90.39
2022-08-24T17:21:34.477Z,90.68
2022-08-24T17:24:04.205Z,90.75
2022-08-24T17:26:34.763Z,91.14
2022-08-24T17:29:07.387Z,91.25
2022-08-24T17:31:37.547Z,91.41
2022-08-24T17:34:10.848Z,91.48
2022-08-24T17:36:43.632Z,91.54
2022-08-24T17:39:15.012Z,91.55
2022-08-24T17:41:45.003Z,91.51
2022-08-24T17:44:20.847Z,91.59
2022-08-24T17:46:53.305Z,91.72
2022-08-24T17:49:26.140Z,91.86
2022-08-24T17:51:56.172Z,91.85
2022-08-24T17:54:28.460Z,92.02
2022-08-24T17:56:58.912Z,92.34
2022-08-24T17:59:33.372Z,92.31
2022-08-24T18:02:05.377Z,92.65
2022-08-24T18:04:38.525Z,92.66
2022-08-24T18:07:12.464Z,92.85
2022-08-24T18:09:46.190Z,93.02
2022-08-24T18:12:16.275Z,93.00
2022-08-24T18:14:46.210Z,93.38
2022-08-24T18:17:22.580Z,93.43
2022-08-24T18:19:56.134Z,93.52
2022-08-24T18:22:25.868Z,93.60
2022-08-24T18:24:55.655Z,93.93
2022-08-24T18:27:30.424Z,94.08
2022-08-24T18:30:02.664Z,94.31
2022-08-24T18:32:37.585Z,94.33
2022-08-24T18:35:12.353Z,94.56
2022-08-24T18:37:42.278Z,94.52
2022-08-24T18:40:20.340Z,94.44
2022-08-24T18:42:52.092Z,94.53
2022-08-24T18:45:22.200Z,94.54
2022-08-24T18:47:53.114Z,94.27
2022-08-24T18:50:28.939Z,94.33
2022-08-24T18:52:59.236Z,94.09
2022-08-24T18:55:29.644Z,94.16
2022-08-24T18:57:59.607Z,94.20
2022-08-24T19:00:29.348Z,93.91
2022-08-24T19:03:01.749Z,94.02
2022-08-24T19:05:34.173Z,93.91
2022-08-24T19:08:04.381Z,93.70
2022-08-24T19:10:39.238Z,93.41
2022-08-24T19:13:15.345Z,93.34
2022-08-24T19:15:46.798Z,93.20
2022-08-24T19:18:17.421Z,93.21
2022-08-24T19:20:52.492Z,93.33
2022-08-24T19:23:24.910Z,93.17
2022-08-24T19:25:55.002Z,93.37
2022-08-24T19:28:25.336Z,93.50
2022-08-24T19:30:58.548Z,93.72
2022-08-24T19:33:31.203Z,93.70
2022-08-24T19:36:03.702Z,93.99
2022-08-24T19:38:33.566Z,94.15
2022-08-24T19:41:11.800Z,94.28
2022-08-24T19:43:56.126Z,94.41
2022-08-24T19:46:25.903Z,94.39
2022-08-24T19:48:56.253Z,94.70
2022-08-24T19:51:28.720Z,94.92
2022-08-24T19:53:58.569Z,94.93
2022-08-24T19:56:28.309Z,95.12
2022-08-24T19:59:03.985Z,95.21
2022-08-24T20:01:36.704Z,95.66
2022-08-24T20:04:09.010Z,95.80
2022-08-24T20:06:42.454Z,96.16
2022-08-24T20:09:12.501Z,96.45
2022-08-24T20:11:42.429Z,96.75
2022-08-24T20:14:12.201Z,96.87
2022-08-24T20:16:44.388Z,97.38
2022-08-24T20:19:15.124Z,97.48
2022-08-24T20:21:48.118Z,97.73
2022-08-24T20:24:18.326Z,97.97
2022-08-24T20:26:51.466Z,98.04
2022-08-24T20:29:21.527Z,98.03
2022-08-24T20:31:55.937Z,97.86
2022-08-24T20:34:25.879Z,97.77
2022-08-24T20:37:00.330Z,97.84
2022-08-24T20:39:30.938Z,97.55
2022-08-24T20:42:00.676Z,97.47
2022-08-24T20:44:30.721Z,97.41
2022-08-24T20:47:01.342Z,97.36
2022-08-24T20:49:31.572Z,97.12
2022-08-24T20:52:04.173Z,97.12
2022-08-24T20:54:38.925Z,97.01
2022-08-24T20:57:11.430Z,96.75
2022-08-24T20:59:41.192Z,96.72
2022-08-24T21:02:11.185Z,96.64
2022-08-24T21:04:41.029Z,96.70
2022-08-24T21:07:15.485Z,96.71
2022-08-24T21:09:45.208Z,96.83
2022-08-24T21:12:14.923Z,96.87
2022-08-24T21:14:44.638Z,96.98
2022-08-24T21:17:14.391Z,97.01
2022-08-24T21:19:46.282Z,97.02
2022-08-24T21:22:18.661Z,97.29
2022-08-24T21:24:48.397Z,97.44
2022-08-24T21:27:19.193Z,97.60
2022-08-24T21:29:48.940Z,97.69
2022-08-24T21:32:31.076Z,97.74
2022-08-24T21:35:00.853Z,97.82
2022-08-24T21:37:33.250Z,97.89
2022-08-24T21:40:03.355Z,98.05
2022-08-24T21:42:33.279Z,97.99
2022-08-24T21:45:03.540Z,98.17
2022-08-24T21:47:33.308Z,98.24
2022-08-24T21:50:03.044Z,98.19
2022-08-24T21:52:35.484Z,98.52
2022-08-24T21:55:05.249Z,98.62
2022-08-24T21:57:35.001Z,98.78
2022-08-24T22:00:05.072Z,98.89
2022-08-24T22:02:34.842Z,98.94
2022-08-24T22:05:04.708Z,99.12
2022-08-24T22:07:37.038Z,99.20
2022-08-24T22:10:08.245Z,99.42
2022-08-24T22:12:38.251Z,99.65
2022-08-24T22:15:11.703Z,99.81
2022-08-24T22:17:41.720Z,99.77
2022-08-24T22:20:23.123Z,100.00
2022-08-24T22:22:56.825Z,100.00
2022-08-24T22:25:26.632Z,100.00
2022-08-24T22:27:56.349Z,100.00
2022-08-24T22:30:26.160Z,100.00
2022-08-24T22:32:55.979Z,100.00
2022-08-24T22:35:25.708Z,100.00
2022-08-24T22:37:58.129Z,100.00
2022-08-24T22:40:27.872Z,100.00
2022-08-24T22:42:57.622Z,100.00
2022-08-24T22:45:27.471Z,100.00
2022-08-24T22:47:57.185Z,100.00
2022-08-24T22:50:26.939Z,100.00
2022-08-24T22:52:59.333Z,100.00
2022-08-24T22:55:29.282Z,100.00
2022-08-24T22:57:59.020Z,100.00
2022-08-24T23:00:29.796Z,100.00
2022-08-24T23:02:59.662Z,100.00
2022-08-24T23:05:29.510Z,100.00
2022-08-24T23:08:02.045Z,100.00
2022-08-24T23:10:31.758Z,100.00
2022-08-24T23:13:01.613Z,100.00
2022-08-24T23:15:31.513Z,100.00
2022-08-24T23:18:21.231Z,100.00
2022-08-24T23:20:48.591Z,100.00
2022-08-24T23:23:21.477Z,100.00
2022-08-24T23:25:51.217Z,100.00
2022-08-24T23:28:21.043Z,99.69
2022-08-24T23:30:50.822Z,99.38
2022-08-24T23:33:20.594Z,99.32
2022-08-24T23:35:50.329Z,99.10
2022-08-24T23:38:22.839Z,98.56
2022-08-24T23:40:52.857Z,98.29
2022-08-24T23:43:22.571Z,97.89
2022-08-24T23:45:52.308Z,97.78
2022-08-24T23:48:22.073Z,97.29
2022-08-24T23:50:51.805Z,96.98
2022-08-24T23:53:24.320Z,96.83
2022-08-24T23:55:54.708Z,96.54
2022-08-24T23:58:24.551Z,96.31
